Winslow, AZ

11:06 PM MDT on August 20, 2014 (GMT -0600)
Mahoney Street | Change Station
CLOSE
Current Station
Personal Weather Station
Location: Winslow, AZ
Elevation: 4843 ft
Nearby Weather Stations

Elev 4843 ft 35.04 °N, 110.69 °W | Updated 2 seconds ago

Clear
Clear
68.6 °F
Feels Like 68.6 °F
N
2.0
Wind Variable Wind from South
Gusts 7.0 mph

Today
High -- | Low -- °F
--% Chance of Precip.
Yesterday
High -- | Low -- °F
Precip. -- in
6:45 AM 8:04 PM
Waning Crescent, 17% visible
Pressure 29.92 in
Visibility 10.0 miles
Clouds Clear
Dew Point 53 °F
Humidity 57%
Rainfall 0.00 in
Snow Depth Not available.
UV 0 out of 12
Pollen 5.10 out of 12
Air Quality Not available.
Flu Activity Not available.
METAR KINW 210456Z AUTO 24007KT 10SM CLR 20/12 A3012 RMK AO2 SLP131 T02000117

More Conditions Fewer Conditions

Pressure 29.92 in
Visibility 10.0 miles
Clouds Clear
Dew Point 53 °F
Humidity 57%
Rainfall 0.00 in
Snow Depth Not available.
UV 0 out of 12
Pollen 5.10 out of 12
Air Quality Not available.
Flu Activity Not available.
METAR KINW 210456Z AUTO 24007KT 10SM CLR 20/12 A3012 RMK AO2 SLP131 T02000117

More Conditions Fewer Conditions

10-Day Weather Forecast

Almanac

Astronomy

Aug. 20, 2014 Rise Set
Actual Time 6:45 AM MDT 8:04 PM MDT
Civil Twilight 6:19 AM MDT 8:30 PM MDT
Nautical Twilight 5:47 AM MDT 9:02 PM MDT
Astronomical Twilight 5:14 AM MDT 9:35 PM MDT
Moon 2:32 AM MDT (8/20) 4:48 PM MDT (8/20)
Length of Visible Light 14h 11m
Length of Day
13h 18m
Tomorrow will be 2m 1s shorter.
Waning Crescent, 17% of the Moon is Illuminated
Aug 21
Waning Crescent
Aug 25
New
Sep 2
First Quarter
Sep 8
Full
Sep 15
Last Quarter

Yesterday's Extremes

State Highs State Lows

Community

WunderPhotos

Upload Photos

1,745,857 photos uploaded!

Nearby

Snow Depth

Station Depth Elevation
Heber 0 in 7640 ft
Promontory 0 in 7930 ft
White Horse Lake 0 in 7180 ft
Workman Creek 2 in 6900 ft
Snowslide Canyon 1 in 9730 ft

Earthquake Activity

City Distance Mag. Time & Date
No recent earthquake activity has been reported nearby.
Minimum magnitude displayed is 2.5.

Coastal Water Temperatures

Place Temperature
No Stations Reporting

Nearby Weather Stations